Time;durP1;ratioP1;P1;durP2;ratioP2;P2;SDS_P1;SDS_P2;PMS_P1;PMS_P2;Temp;Humidity;BMP_temperature;BMP_pressure;BME280_temperature;BME280_humidity;BME280_pressure;Samples;Min_cycle;Max_cycle;Signal;HPM_P1;HPM_P2
2023/08/24 00:01:25;;;;;;;1.58;0.65;;;;;;;17.17;71.40;101204.63;5058668;28;20052;-84
2023/08/24 00:03:53;;;;;;;0.47;0.47;;;;;;;17.08;71.41;101184.72;5061571;28;20513;-83
2023/08/24 00:06:20;;;;;;;6.47;0.77;;;;;;;17.15;71.67;101196.75;5053488;28;20049;-83
2023/08/24 00:08:47;;;;;;;2.92;0.60;;;;;;;17.11;71.50;101184.59;5066654;28;20850;-84
2023/08/24 00:11:15;;;;;;;1.60;0.60;;;;;;;17.15;71.40;101195.88;5060738;28;20494;-84
2023/08/24 00:13:48;;;;;;;2.53;0.60;;;;;;;17.05;71.36;101188.34;5058684;28;20068;-83
2023/08/24 00:16:15;;;;;;;3.47;0.60;;;;;;;17.10;71.43;101188.13;5069085;28;20467;-83
2023/08/24 00:18:42;;;;;;;3.33;0.57;;;;;;;17.03;71.46;101181.41;5055423;28;20060;-83
2023/08/24 00:21:09;;;;;;;2.72;0.43;;;;;;;17.05;71.78;101195.41;5055897;28;20056;-84
2023/08/24 00:23:36;;;;;;;1.85;0.68;;;;;;;17.04;71.80;101185.75;5064398;28;20059;-84
2023/08/24 00:26:03;;;;;;;3.55;0.55;;;;;;;17.10;71.71;101201.34;5060385;28;20426;-84
2023/08/24 00:28:30;;;;;;;2.03;0.60;;;;;;;17.07;71.72;101196.19;5060477;28;20586;-84
2023/08/24 00:30:58;;;;;;;0.93;0.73;;;;;;;17.08;72.06;101205.84;5062534;28;20045;-84
2023/08/24 00:33:25;;;;;;;4.07;0.50;;;;;;;17.07;71.72;101210.22;5054580;28;20087;-83
2023/08/24 00:35:52;;;;;;;3.60;0.65;;;;;;;17.06;71.83;101207.66;5064077;28;20044;-83
2023/08/24 00:38:19;;;;;;;1.45;0.57;;;;;;;17.07;71.81;101209.38;5062236;28;20060;-83
2023/08/24 00:40:46;;;;;;;1.38;0.60;;;;;;;17.05;72.08;101205.97;5064301;28;20061;-83
2023/08/24 00:43:13;;;;;;;4.20;0.60;;;;;;;17.05;72.05;101211.25;5060794;28;20060;-84
2023/08/24 00:45:40;;;;;;;1.20;0.77;;;;;;;17.04;72.03;101204.22;5061080;28;20091;-83
2023/08/24 00:48:09;;;;;;;2.78;0.82;;;;;;;16.96;71.96;101187.81;5057404;28;20045;-83
2023/08/24 00:50:36;;;;;;;3.28;0.73;;;;;;;17.01;72.00;101199.91;5058151;28;20048;-84
2023/08/24 00:53:03;;;;;;;6.90;2.15;;;;;;;16.93;71.97;101190.56;5060418;28;20399;-83
2023/08/24 00:55:30;;;;;;;1.00;0.60;;;;;;;16.99;72.28;101203.53;5067430;28;20059;-83
2023/08/24 00:57:58;;;;;;;1.60;0.70;;;;;;;16.99;72.42;101201.78;5057520;28;20045;-82
2023/08/24 01:00:25;;;;;;;1.55;0.50;;;;;;;16.96;72.27;101204.53;5058062;28;20065;-78
2023/08/24 01:02:52;;;;;;;2.70;0.57;;;;;;;16.98;72.27;101204.47;5058577;28;20127;-82
2023/08/24 01:05:20;;;;;;;3.00;0.73;;;;;;;16.95;72.35;101197.50;5058677;28;20048;-82
2023/08/24 01:07:47;;;;;;;4.13;1.02;;;;;;;16.98;72.57;101199.19;5054146;28;20080;-82
2023/08/24 01:10:14;;;;;;;2.90;0.80;;;;;;;16.96;72.71;101201.00;5054742;28;20063;-83
2023/08/24 01:12:59;;;;;;;1.67;0.70;;;;;;;16.96;72.48;101209.81;5057481;28;20052;-83
2023/08/24 01:15:30;;;;;;;1.00;0.80;;;;;;;16.96;72.70;101206.28;5053792;28;20048;-83
2023/08/24 01:18:04;;;;;;;0.90;0.80;;;;;;;16.94;72.53;101197.59;5059381;28;20083;-83
2023/08/24 01:20:34;;;;;;;3.22;0.60;;;;;;;16.94;72.62;101201.09;5066054;28;20067;-82
2023/08/24 01:23:10;;;;;;;2.40;0.80;;;;;;;16.94;72.69;101198.44;5059412;28;20094;-82
2023/08/24 01:25:41;;;;;;;1.45;0.63;;;;;;;16.91;72.65;101200.34;5057154;28;20049;-83
2023/08/24 01:28:11;;;;;;;1.67;0.70;;;;;;;16.93;72.76;101212.53;5058604;28;20049;-83
2023/08/24 01:30:38;;;;;;;2.10;0.70;;;;;;;16.91;73.00;101197.72;5066806;28;20059;-83
2023/08/24 01:33:05;;;;;;;0.68;0.60;;;;;;;16.74;72.70;101175.41;5065812;28;20044;-83
2023/08/24 01:35:33;;;;;;;2.20;0.70;;;;;;;16.90;72.73;101201.25;5058999;28;20055;-83
2023/08/24 01:38:03;;;;;;;2.45;0.68;;;;;;;16.92;73.10;101209.97;5056399;28;20071;-82
2023/08/24 01:40:40;;;;;;;2.42;0.77;;;;;;;16.91;72.99;101205.63;5060849;28;20459;-84
2023/08/24 01:43:10;;;;;;;3.17;0.80;;;;;;;16.91;73.25;101203.00;5054846;28;20056;-82
2023/08/24 01:45:41;;;;;;;1.42;0.70;;;;;;;16.88;73.15;101201.31;5059008;28;20048;-83
2023/08/24 01:48:10;;;;;;;4.18;1.20;;;;;;;16.90;73.06;101201.25;5056867;28;20060;-82
2023/08/24 01:50:38;;;;;;;2.13;1.05;;;;;;;16.89;73.23;101202.19;5053284;28;20045;-83
2023/08/24 01:53:05;;;;;;;2.30;0.60;;;;;;;16.90;73.35;101209.16;5053320;28;20056;-83
2023/08/24 01:55:32;;;;;;;2.35;0.65;;;;;;;16.89;73.03;101197.75;5062989;28;20049;-83
2023/08/24 01:57:59;;;;;;;2.25;0.70;;;;;;;16.82;73.15;101194.50;5060103;28;20051;-83
2023/08/24 02:00:28;;;;;;;3.53;0.82;;;;;;;16.79;73.54;101180.53;5063129;28;20059;-83
2023/08/24 02:02:55;;;;;;;1.05;0.60;;;;;;;16.77;73.57;101183.25;5062794;28;20071;-83
2023/08/24 02:05:24;;;;;;;1.85;0.63;;;;;;;16.84;73.49;101189.16;5064255;28;20063;-83
2023/08/24 02:07:51;;;;;;;2.40;0.70;;;;;;;16.86;73.45;101198.72;5057296;28;20052;-82
2023/08/24 02:10:18;;;;;;;3.70;0.75;;;;;;;16.87;73.38;101196.94;5058968;28;20059;-86
2023/08/24 02:12:44;;;;;;;0.77;0.60;;;;;;;16.75;73.50;101171.84;5055980;28;20062;-79
2023/08/24 02:15:11;;;;;;;1.52;0.63;;;;;;;16.86;73.58;101190.81;5066029;28;20053;-79
2023/08/24 02:17:40;;;;;;;1.17;0.82;;;;;;;16.85;73.49;101183.81;5058554;28;20052;-79
2023/08/24 02:20:09;;;;;;;4.47;0.75;;;;;;;16.85;73.34;101186.47;5057592;28;20048;-79
2023/08/24 02:22:36;;;;;;;4.00;0.88;;;;;;;16.81;73.47;101187.47;5066365;28;20036;-84
2023/08/24 02:25:04;;;;;;;2.63;0.60;;;;;;;16.85;73.39;101194.38;5068170;28;20498;-83
2023/08/24 02:27:31;;;;;;;4.78;0.90;;;;;;;16.84;73.70;101191.78;5067867;28;20820;-83
2023/08/24 02:29:58;;;;;;;3.10;0.70;;;;;;;16.84;73.94;101200.56;5059976;28;20059;-84
2023/08/24 02:32:25;;;;;;;2.70;0.60;;;;;;;16.84;73.84;101203.19;5059503;28;20049;-84
2023/08/24 02:34:53;;;;;;;3.88;0.60;;;;;;;16.83;74.00;101190.94;5066055;28;20051;-84
2023/08/24 02:37:20;;;;;;;1.98;0.77;;;;;;;16.82;73.95;101194.50;5057982;28;20048;-83
2023/08/24 02:39:47;;;;;;;3.28;0.73;;;;;;;16.83;73.84;101190.06;5063626;28;20060;-84
2023/08/24 02:42:14;;;;;;;1.25;0.77;;;;;;;16.81;74.06;101184.84;5069809;28;20179;-84
2023/08/24 02:44:41;;;;;;;2.15;0.57;;;;;;;16.82;74.02;101183.94;5067450;28;20048;-83
2023/08/24 02:47:08;;;;;;;1.48;1.10;;;;;;;16.80;73.97;101182.28;5061522;28;20068;-83
2023/08/24 02:49:35;;;;;;;3.47;0.70;;;;;;;16.81;74.21;101192.75;5070295;28;20055;-83
2023/08/24 02:52:03;;;;;;;3.35;0.65;;;;;;;16.81;74.21;101182.19;5066212;28;20052;-83
2023/08/24 02:54:30;;;;;;;1.40;0.50;;;;;;;16.82;74.03;101177.78;5058236;28;20053;-83
2023/08/24 02:56:57;;;;;;;1.58;0.70;;;;;;;16.80;74.18;101179.63;5061794;28;20052;-83
2023/08/24 02:59:24;;;;;;;1.05;1.00;;;;;;;16.81;74.29;101187.47;5060652;28;20052;-84
2023/08/24 03:01:51;;;;;;;2.78;0.90;;;;;;;16.79;74.18;101176.16;5061626;28;20058;-84
2023/08/24 03:04:18;;;;;;;1.40;0.60;;;;;;;16.81;74.23;101181.34;5066219;28;20416;-84
2023/08/24 03:06:45;;;;;;;2.63;0.75;;;;;;;16.79;74.05;101178.78;5058084;28;20061;-84
2023/08/24 03:09:13;;;;;;;7.72;1.05;;;;;;;16.80;74.38;101185.78;5056810;28;20073;-84
2023/08/24 03:11:40;;;;;;;0.93;0.52;;;;;;;16.80;74.32;101183.13;5053820;28;20041;-84
2023/08/24 03:14:07;;;;;;;1.00;0.70;;;;;;;16.80;74.55;101180.50;5058834;28;20060;-84
2023/08/24 03:16:34;;;;;;;3.45;0.80;;;;;;;16.78;74.66;101177.03;5064371;28;20049;-84
2023/08/24 03:19:01;;;;;;;3.45;0.80;;;;;;;16.74;74.58;101170.16;5060268;28;20061;-84
2023/08/24 03:21:28;;;;;;;5.55;1.10;;;;;;;16.75;74.61;101171.00;5061719;28;20052;-84
2023/08/24 03:23:55;;;;;;;2.22;0.63;;;;;;;16.79;74.42;101178.78;5063478;28;20044;-84
2023/08/24 03:26:23;;;;;;;1.10;0.75;;;;;;;16.76;74.75;101178.91;5060106;28;20055;-85
2023/08/24 03:28:51;;;;;;;0.70;0.57;;;;;;;16.67;74.77;101159.88;5061580;28;20134;-84
2023/08/24 03:31:17;;;;;;;1.00;0.80;;;;;;;16.78;74.49;101176.19;5059248;28;20037;-81
2023/08/24 03:33:45;;;;;;;1.48;1.05;;;;;;;16.79;74.73;101184.06;5063559;28;20051;-80
2023/08/24 03:36:12;;;;;;;5.35;0.70;;;;;;;16.63;74.66;101157.34;5063352;28;20135;-79
2023/08/24 03:38:39;;;;;;;1.60;0.70;;;;;;;16.77;74.80;101174.47;5062546;28;20143;-80
2023/08/24 03:41:06;;;;;;;1.20;0.80;;;;;;;16.74;74.85;101167.50;5054640;28;20708;-82
2023/08/24 03:43:36;;;;;;;2.67;0.68;;;;;;;16.75;74.76;101177.13;5059075;28;20048;-81
2023/08/24 03:46:05;;;;;;;3.42;0.80;;;;;;;16.70;74.41;101178.22;5060868;28;20091;-80
2023/08/24 03:48:32;;;;;;;1.95;0.88;;;;;;;16.78;74.67;101179.69;5053379;28;20045;-80
2023/08/24 03:51:00;;;;;;;1.90;0.70;;;;;;;16.67;74.38;101166.00;5056617;28;20053;-81
2023/08/24 03:53:27;;;;;;;2.55;0.60;;;;;;;16.69;74.65;101165.97;5060809;28;20072;-81
2023/08/24 03:55:54;;;;;;;1.35;0.60;;;;;;;16.77;74.29;101177.13;5058746;28;20484;-82
2023/08/24 03:58:21;;;;;;;0.80;0.70;;;;;;;16.68;74.42;101156.31;5067580;28;20052;-81
2023/08/24 04:00:50;;;;;;;0.60;0.60;;;;;;;16.75;74.33;101176.28;5060879;28;20041;-81
2023/08/24 04:03:17;;;;;;;1.27;0.68;;;;;;;16.66;74.53;101166.09;5054968;28;20064;-81
2023/08/24 04:05:43;;;;;;;2.05;0.80;;;;;;;16.66;74.54;101164.28;5060281;28;20059;-81
2023/08/24 04:08:10;;;;;;;2.15;0.75;;;;;;;16.63;74.66;101165.25;5058731;28;20044;-81
2023/08/24 04:10:38;;;;;;;2.47;0.68;;;;;;;16.72;74.61;101179.03;5050788;28;20056;-81
2023/08/24 04:13:05;;;;;;;2.63;0.77;;;;;;;16.67;74.60;101176.56;5063101;28;20056;-81
2023/08/24 04:15:32;;;;;;;1.70;0.85;;;;;;;16.62;74.61;101165.31;5059196;28;20040;-81
2023/08/24 04:18:00;;;;;;;1.15;0.70;;;;;;;16.70;74.52;101179.06;5058891;28;20095;-81
2023/08/24 04:20:27;;;;;;;3.58;1.10;;;;;;;16.69;74.83;101172.09;5053845;28;20060;-81
2023/08/24 04:22:56;;;;;;;1.40;0.73;;;;;;;16.64;74.88;101160.84;5062973;28;20126;-81
2023/08/24 04:25:23;;;;;;;0.82;0.50;;;;;;;16.57;74.90;101154.09;5060298;28;20041;-81
2023/08/24 04:27:49;;;;;;;2.78;0.60;;;;;;;16.68;74.72;101185.31;5059359;28;20052;-81
2023/08/24 04:30:16;;;;;;;2.35;0.70;;;;;;;16.66;74.72;101177.47;5059035;28;20073;-81
2023/08/24 04:32:43;;;;;;;1.95;0.70;;;;;;;16.67;74.82;101184.47;5055677;28;20045;-80
2023/08/24 04:35:11;;;;;;;0.80;0.50;;;;;;;16.63;74.93;101173.19;5058134;28;20056;-80
2023/08/24 04:37:39;;;;;;;1.77;0.52;;;;;;;16.55;74.84;101161.19;5063177;28;20052;-79
2023/08/24 04:40:08;;;;;;;3.35;0.60;;;;;;;16.67;74.81;101180.97;5061875;28;20037;-80
2023/08/24 04:42:35;;;;;;;0.70;0.47;;;;;;;16.59;74.90;101173.34;5063144;28;20041;-81
2023/08/24 04:45:02;;;;;;;1.67;0.80;;;;;;;16.58;74.84;101171.63;5054765;28;20415;-82
2023/08/24 04:47:29;;;;;;;1.27;0.80;;;;;;;16.66;75.11;101182.75;5060766;28;20055;-79
2023/08/24 04:49:56;;;;;;;2.67;1.05;;;;;;;16.67;75.19;101187.09;5060114;28;20049;-81
2023/08/24 04:52:24;;;;;;;7.47;1.40;;;;;;;16.67;75.18;101179.19;5065802;28;20443;-81
2023/08/24 04:54:51;;;;;;;1.70;0.65;;;;;;;16.62;75.30;101168.84;5061427;28;20529;-82
2023/08/24 04:57:19;;;;;;;0.82;0.60;;;;;;;16.66;75.42;101174.84;5054112;28;20045;-81
2023/08/24 04:59:46;;;;;;;2.35;0.70;;;;;;;16.64;75.63;101174.03;5056876;28;20438;-81
2023/08/24 05:02:13;;;;;;;3.83;0.75;;;;;;;16.58;75.76;101154.03;5062716;28;20518;-81
2023/08/24 05:04:40;;;;;;;4.68;0.73;;;;;;;16.68;75.88;101170.38;5068800;28;20084;-81
2023/08/24 05:07:07;;;;;;;3.88;0.70;;;;;;;16.67;75.85;101178.34;5034004;28;20057;-80
2023/08/24 05:09:35;;;;;;;2.20;0.60;;;;;;;16.61;75.81;101159.19;5061516;28;20048;-80
2023/08/24 05:12:02;;;;;;;4.72;0.65;;;;;;;16.64;75.60;101168.75;5059476;28;20048;-81
2023/08/24 05:14:29;;;;;;;5.22;0.82;;;;;;;16.69;75.68;101172.09;5055294;28;20047;-82
2023/08/24 05:16:56;;;;;;;2.47;0.70;;;;;;;16.73;75.72;101178.97;5060485;28;20049;-81
2023/08/24 05:19:23;;;;;;;7.68;0.95;;;;;;;16.74;75.89;101172.78;5061411;28;20049;-82
2023/08/24 05:21:50;;;;;;;2.40;0.60;;;;;;;16.67;75.96;101162.50;5066653;28;20067;-81
2023/08/24 05:24:17;;;;;;;1.00;0.73;;;;;;;16.79;75.96;101175.25;5061157;28;20053;-81
2023/08/24 05:26:45;;;;;;;3.47;0.70;;;;;;;16.80;76.00;101171.72;5063849;28;20497;-81
2023/08/24 05:29:12;;;;;;;3.70;0.80;;;;;;;16.76;76.09;101167.44;5056696;28;20059;-81
2023/08/24 05:31:39;;;;;;;1.73;0.93;;;;;;;16.78;76.31;101163.84;5062053;28;20048;-81
2023/08/24 05:34:05;;;;;;;5.05;0.70;;;;;;;16.89;76.39;101184.56;5057309;28;20041;-81
2023/08/24 05:36:32;;;;;;;3.65;1.52;;;;;;;16.92;76.49;101173.03;5057654;28;20048;-81
2023/08/24 05:38:59;;;;;;;4.00;0.68;;;;;;;16.94;76.69;101172.06;5059823;28;20056;-81
2023/08/24 05:41:26;;;;;;;4.95;1.35;;;;;;;16.96;76.67;101166.69;5056217;28;20045;-80
2023/08/24 05:43:54;;;;;;;7.32;2.05;;;;;;;16.84;76.59;101145.16;5055645;28;20054;-81
2023/08/24 05:46:21;;;;;;;3.40;0.65;;;;;;;17.01;76.54;101172.66;5061406;28;20067;-81
2023/08/24 05:48:48;;;;;;;1.50;0.73;;;;;;;16.92;76.57;101141.38;5054322;28;20045;-81
2023/08/24 05:51:15;;;;;;;2.95;0.60;;;;;;;17.01;76.64;101159.47;5058511;28;20047;-80
2023/08/24 05:53:42;;;;;;;7.05;0.70;;;;;;;17.13;76.58;101164.25;5057970;28;20045;-80
2023/08/24 05:56:09;;;;;;;4.22;1.33;;;;;;;17.16;76.30;101177.38;5064331;28;20041;-82
2023/08/24 05:58:35;;;;;;;1.10;0.63;;;;;;;17.17;76.49;101168.50;5053755;28;20060;-79
2023/08/24 06:01:04;;;;;;;1.42;0.60;;;;;;;17.14;76.28;101149.31;5060575;28;20067;-80
2023/08/24 06:03:31;;;;;;;8.00;1.05;;;;;;;17.24;76.15;101172.63;5066210;28;20056;-80
2023/08/24 06:06:03;;;;;;;4.72;0.70;;;;;;;17.28;76.17;101166.31;5057895;28;20086;-80
2023/08/24 06:08:30;;;;;;;6.25;1.15;;;;;;;17.31;76.08;101170.59;5053634;28;20045;-80
2023/08/24 06:10:57;;;;;;;3.28;0.70;;;;;;;17.28;76.19;101162.81;5057618;28;20103;-80
2023/08/24 06:13:24;;;;;;;4.18;0.70;;;;;;;17.37;76.07;101178.28;5053624;28;20037;-80
2023/08/24 06:15:51;;;;;;;5.97;1.00;;;;;;;17.41;75.88;101176.38;5054448;28;20049;-79
2023/08/24 06:18:19;;;;;;;2.25;0.70;;;;;;;17.43;75.83;101171.88;5053185;28;20048;-80
2023/08/24 06:20:48;;;;;;;3.38;0.73;;;;;;;17.45;75.72;101173.56;5052346;28;20083;-79
2023/08/24 06:23:15;;;;;;;7.80;1.48;;;;;;;17.48;75.55;101169.94;5063041;28;20044;-80
2023/08/24 06:25:42;;;;;;;4.15;0.70;;;;;;;17.50;75.57;101178.63;5056841;28;20049;-80
2023/08/24 06:28:09;;;;;;;5.55;0.68;;;;;;;17.52;75.39;101180.28;5054999;28;20048;-80
2023/08/24 06:30:39;;;;;;;3.47;0.65;;;;;;;17.55;75.33;101174.03;5056518;28;20063;-80
2023/08/24 06:33:07;;;;;;;2.55;0.80;;;;;;;17.58;75.43;101179.19;5056242;28;20090;-80
2023/08/24 06:35:35;;;;;;;5.20;0.70;;;;;;;17.60;75.29;101176.47;5053879;28;20431;-80
2023/08/24 06:38:03;;;;;;;4.80;0.73;;;;;;;17.45;75.08;101152.41;5057163;28;20803;-81
2023/08/24 06:40:31;;;;;;;1.17;0.60;;;;;;;17.65;75.08;101183.31;5057096;28;20045;-80
2023/08/24 06:42:58;;;;;;;4.72;0.80;;;;;;;17.68;75.21;101180.53;5052800;28;22006;-80
2023/08/24 06:45:24;;;;;;;7.05;0.73;;;;;;;17.72;74.89;101186.53;5053449;28;20045;-80
2023/08/24 06:47:52;;;;;;;3.20;0.52;;;;;;;17.74;74.74;101190.84;5051789;28;20463;-80
2023/08/24 06:50:20;;;;;;;4.63;0.80;;;;;;;17.77;74.85;101184.56;5051217;28;20379;-80
2023/08/24 06:52:48;;;;;;;4.15;0.70;;;;;;;17.77;74.63;101187.22;5059737;28;20659;-81
2023/08/24 06:55:15;;;;;;;8.18;1.08;;;;;;;17.82;74.78;101193.19;5060575;28;20052;-80
2023/08/24 06:57:42;;;;;;;3.10;0.90;;;;;;;17.86;74.60;101183.34;5060651;28;20056;-81
2023/08/24 07:00:12;;;;;;;9.30;1.45;;;;;;;17.80;74.76;101167.75;5053995;28;20055;-79
2023/08/24 07:02:39;;;;;;;6.97;0.60;;;;;;;17.89;74.47;101180.56;5056899;28;20072;-89
2023/08/24 07:05:08;;;;;;;1.58;0.70;;;;;;;17.97;74.49;101181.97;5064932;28;20076;-88
2023/08/24 07:07:35;;;;;;;2.17;0.68;;;;;;;18.01;74.41;101187.97;5067931;28;20042;-81
2023/08/24 07:10:04;;;;;;;3.60;0.70;;;;;;;18.04;74.68;101187.84;5061859;28;20049;-86
2023/08/24 07:12:31;;;;;;;7.13;1.15;;;;;;;18.10;74.52;101186.72;5058207;28;20071;-86
2023/08/24 07:14:58;;;;;;;7.63;0.70;;;;;;;18.15;74.30;101190.88;5060983;28;20390;-89
2023/08/24 07:17:25;;;;;;;6.28;1.08;;;;;;;18.22;74.32;101195.94;5063723;28;20052;-84
2023/08/24 07:19:51;;;;;;;3.33;0.70;;;;;;;18.27;74.13;101188.63;5069987;28;20049;-81
2023/08/24 07:22:19;;;;;;;6.82;1.25;;;;;;;18.32;74.29;101191.94;5065017;28;20049;-85
2023/08/24 07:24:46;;;;;;;3.92;0.75;;;;;;;18.38;73.90;101194.31;5064765;28;20102;-82
2023/08/24 07:27:14;;;;;;;8.07;0.65;;;;;;;18.42;73.58;101199.41;5071426;28;20455;-82
2023/08/24 07:29:41;;;;;;;3.80;0.90;;;;;;;18.49;73.38;101196.47;5055090;28;20515;-84
2023/08/24 07:32:08;;;;;;;2.65;0.88;;;;;;;18.55;73.28;101197.06;5061336;28;20044;-81
2023/08/24 07:34:35;;;;;;;2.63;0.70;;;;;;;18.61;72.66;101199.44;5060639;28;20144;-83
2023/08/24 07:37:02;;;;;;;3.40;0.60;;;;;;;18.68;72.25;101204.47;5055742;28;20450;-82
2023/08/24 07:39:29;;;;;;;1.33;0.60;;;;;;;18.73;72.11;101199.81;5061185;28;20055;-85
2023/08/24 07:41:55;;;;;;;3.65;0.82;;;;;;;18.80;71.72;101198.63;5063598;28;20048;-86
2023/08/24 07:44:24;;;;;;;5.50;0.80;;;;;;;18.86;71.56;101203.63;5064102;28;20064;-83
2023/08/24 07:46:51;;;;;;;5.10;1.25;;;;;;;18.85;71.28;101192.19;5058368;28;20056;-80
2023/08/24 07:49:18;;;;;;;6.88;0.73;;;;;;;18.97;70.99;101206.63;5057815;28;20040;-79
2023/08/24 07:51:47;;;;;;;6.30;0.80;;;;;;;19.04;70.68;101210.72;5052554;28;20052;-80
2023/08/24 07:54:14;;;;;;;4.38;0.70;;;;;;;19.08;70.62;101214.09;5057372;28;20049;-80
2023/08/24 07:56:41;;;;;;;1.95;0.60;;;;;;;19.14;70.52;101213.78;5057407;28;20057;-82
2023/08/24 07:59:08;;;;;;;5.63;0.57;;;;;;;19.19;70.51;101214.44;5059457;28;20404;-81
2023/08/24 08:01:36;;;;;;;4.55;0.70;;;;;;;19.24;70.00;101212.44;5059387;28;20048;-82
2023/08/24 08:04:03;;;;;;;4.82;0.57;;;;;;;19.05;69.79;101177.16;5060399;28;20407;-82
2023/08/24 08:06:29;;;;;;;4.85;0.70;;;;;;;19.32;69.83;101217.34;5065106;28;20041;-85
2023/08/24 08:08:57;;;;;;;3.85;0.57;;;;;;;19.36;69.65;101218.09;5059790;28;20056;-80
2023/08/24 08:11:24;;;;;;;3.50;0.60;;;;;;;19.38;69.62;101211.78;5056671;28;20475;-77
2023/08/24 08:13:51;;;;;;;3.83;0.70;;;;;;;19.41;69.25;101206.34;5055600;28;20056;-76
2023/08/24 08:16:18;;;;;;;0.98;0.50;;;;;;;19.39;68.78;101202.88;5056263;28;20055;-82
2023/08/24 08:18:46;;;;;;;5.28;0.60;;;;;;;19.45;68.88;101204.38;5061777;28;20081;-80
2023/08/24 08:21:17;;;;;;;3.95;0.60;;;;;;;19.36;68.65;101187.16;5059056;28;20052;-78
2023/08/24 08:23:44;;;;;;;3.75;0.50;;;;;;;19.35;69.03;101174.81;5059761;28;20194;-78
2023/08/24 08:26:12;;;;;;;2.83;0.57;;;;;;;19.47;68.41;101199.88;5058263;28;20045;-75
2023/08/24 08:28:38;;;;;;;3.30;0.50;;;;;;;19.59;67.98;101209.00;5050321;28;20044;-76
2023/08/24 08:31:05;;;;;;;0.82;0.40;;;;;;;19.62;68.15;101211.50;5052530;28;20044;-77
2023/08/24 08:33:33;;;;;;;4.65;0.55;;;;;;;19.65;68.18;101203.41;5035326;28;20040;-77
2023/08/24 08:36:01;;;;;;;3.00;0.50;;;;;;;19.68;68.02;101211.25;5053735;28;20049;-78
2023/08/24 08:38:28;;;;;;;2.53;0.47;;;;;;;19.72;67.93;101215.44;5057533;28;20044;-76
2023/08/24 08:40:57;;;;;;;3.40;0.47;;;;;;;19.76;67.99;101211.72;5053421;28;20044;-76
2023/08/24 08:43:24;;;;;;;4.57;0.60;;;;;;;19.79;67.96;101210.72;5047077;28;20041;-76
2023/08/24 08:45:52;;;;;;;1.55;0.32;;;;;;;19.75;67.81;101204.69;5056000;28;20049;-76
2023/08/24 08:48:21;;;;;;;2.17;0.40;;;;;;;19.86;67.85;101207.66;5052142;28;20041;-76
2023/08/24 08:50:50;;;;;;;3.45;0.60;;;;;;;19.88;67.02;101205.78;5056643;28;20053;-77
2023/08/24 08:53:22;;;;;;;5.82;1.42;;;;;;;19.92;65.73;101206.47;5054493;28;20510;-76
2023/08/24 08:55:52;;;;;;;3.17;0.60;;;;;;;19.92;66.02;101191.47;5054505;28;20045;-77
2023/08/24 08:58:20;;;;;;;3.72;0.75;;;;;;;20.01;65.52;101200.75;5051852;28;20037;-76
2023/08/24 09:00:48;;;;;;;3.80;1.13;;;;;;;20.03;65.61;101206.78;5050824;28;20060;-77
2023/08/24 09:03:18;;;;;;;2.45;0.50;;;;;;;20.06;65.33;101206.63;5052324;28;20080;-76
2023/08/24 09:05:47;;;;;;;5.30;0.70;;;;;;;20.10;65.55;101199.41;5048990;28;20051;-77
2023/08/24 09:08:15;;;;;;;2.75;0.93;;;;;;;20.11;65.46;101204.63;5055980;28;20052;-76
2023/08/24 09:10:43;;;;;;;2.67;0.90;;;;;;;20.14;65.53;101204.44;5050641;28;20045;-77
2023/08/24 09:13:10;;;;;;;4.32;0.60;;;;;;;20.16;65.47;101205.25;5054582;28;20143;-78
2023/08/24 09:15:37;;;;;;;3.40;0.40;;;;;;;20.05;65.32;101186.38;5052935;28;20124;-77
2023/08/24 09:18:05;;;;;;;5.28;0.50;;;;;;;20.15;65.42;101194.69;5056443;28;20041;-77
2023/08/24 09:20:32;;;;;;;3.55;0.50;;;;;;;20.02;65.36;101175.06;5053794;28;20538;-81
2023/08/24 09:22:59;;;;;;;3.08;0.50;;;;;;;20.19;65.13;101202.44;5062331;28;20037;-79
2023/08/24 09:25:26;;;;;;;3.10;0.50;;;;;;;20.20;64.90;101195.31;5053735;28;20400;-80
2023/08/24 09:28:03;;;;;;;2.78;0.50;;;;;;;20.11;65.37;101175.44;5057088;28;20064;-80
2023/08/24 09:30:31;;;;;;;4.25;0.43;;;;;;;20.20;65.45;101190.00;5054626;28;20044;-79
2023/08/24 09:33:03;;;;;;;2.88;0.50;;;;;;;20.18;65.11;101183.97;5057138;28;20052;-80
2023/08/24 09:35:29;;;;;;;5.25;0.50;;;;;;;20.24;65.47;101194.25;5055973;28;20045;-79
2023/08/24 09:37:56;;;;;;;3.85;0.43;;;;;;;20.23;64.98;101184.56;5062503;28;20406;-80
2023/08/24 09:40:25;;;;;;;2.05;0.50;;;;;;;20.26;65.26;101188.84;5061306;28;20048;-79
2023/08/24 09:42:52;;;;;;;5.72;0.50;;;;;;;20.22;66.00;101177.53;5063080;28;20052;-81
2023/08/24 09:45:21;;;;;;;2.53;0.55;;;;;;;20.30;64.91;101185.97;5053211;28;20041;-80
2023/08/24 09:47:52;;;;;;;7.47;0.70;;;;;;;20.32;64.69;101183.22;5055859;28;20050;-80
2023/08/24 09:50:19;;;;;;;2.50;0.50;;;;;;;20.37;64.62;101189.13;5056612;28;20513;-80
2023/08/24 09:52:49;;;;;;;1.85;0.50;;;;;;;20.19;64.82;101156.47;5064627;28;20048;-79
2023/08/24 09:55:22;;;;;;;2.33;0.40;;;;;;;20.43;64.79;101181.72;5060964;28;20049;-80
2023/08/24 09:57:54;;;;;;;3.70;0.38;;;;;;;20.48;64.50;101194.72;5054887;28;20037;-79
2023/08/24 10:00:24;;;;;;;2.97;0.43;;;;;;;20.45;64.13;101174.53;5054704;28;20064;-80
2023/08/24 10:02:52;;;;;;;0.68;0.20;;;;;;;20.60;64.31;101193.25;5059644;28;20123;-79
2023/08/24 10:05:22;;;;;;;2.72;0.35;;;;;;;20.64;63.62;101192.16;5057241;28;20051;-77
2023/08/24 10:07:53;;;;;;;3.38;0.30;;;;;;;20.69;63.55;101183.94;5050651;28;20729;-78
2023/08/24 10:10:21;;;;;;;2.53;0.40;;;;;;;20.73;63.33;101183.69;5057406;28;20051;-79
2023/08/24 10:12:52;;;;;;;2.08;0.40;;;;;;;20.77;63.33;101169.28;5052290;28;20048;-79
2023/08/24 10:15:22;;;;;;;0.82;0.50;;;;;;;20.81;62.83;101173.50;5065078;28;20396;-78
2023/08/24 10:17:51;;;;;;;1.92;0.43;;;;;;;20.73;62.86;101159.78;5057810;28;20139;-79
2023/08/24 10:20:20;;;;;;;1.77;1.08;;;;;;;20.91;63.41;101183.63;5055283;28;20103;-82
2023/08/24 10:22:48;;;;;;;2.10;0.40;;;;;;;20.95;62.80;101180.72;5055543;28;20059;-79
2023/08/24 10:25:17;;;;;;;5.28;0.43;;;;;;;21.00;62.23;101178.63;5060438;28;20044;-79
2023/08/24 10:27:47;;;;;;;3.90;0.32;;;;;;;21.03;62.99;101180.28;5062635;28;20048;-79
2023/08/24 10:30:16;;;;;;;4.80;0.50;;;;;;;21.07;62.14;101173.88;5061821;28;20047;-79
2023/08/24 10:32:45;;;;;;;5.75;0.40;;;;;;;21.09;61.98;101174.66;5056201;28;20491;-77
2023/08/24 10:35:15;;;;;;;2.80;0.40;;;;;;;21.11;62.10;101172.75;5033667;28;20041;-76
2023/08/24 10:37:46;;;;;;;5.55;0.50;;;;;;;21.09;61.82;101170.19;5058514;28;20114;-78
2023/08/24 10:40:14;;;;;;;2.15;0.40;;;;;;;21.10;61.82;101176.34;5057925;28;20045;-77
2023/08/24 10:42:47;;;;;;;3.80;0.40;;;;;;;21.08;62.03;101173.75;5057668;28;20647;-77
2023/08/24 10:45:15;;;;;;;3.42;0.40;;;;;;;21.11;61.82;101176.25;5058818;28;20049;-78
2023/08/24 10:47:46;;;;;;;3.70;0.40;;;;;;;21.14;61.98;101172.56;5054289;28;20711;-78
2023/08/24 10:50:15;;;;;;;1.90;0.40;;;;;;;21.15;61.56;101157.50;5026852;28;20041;-77
2023/08/24 10:52:45;;;;;;;3.22;0.40;;;;;;;21.16;61.45;101170.69;5059145;28;20110;-77
2023/08/24 10:55:25;;;;;;;1.52;0.32;;;;;;;21.15;61.81;101163.66;5058580;28;20037;-78
2023/08/24 10:57:59;;;;;;;2.33;0.40;;;;;;;21.19;61.57;101167.84;5060261;28;20041;-78
2023/08/24 11:00:28;;;;;;;2.67;0.33;;;;;;;21.18;61.33;101165.28;5055753;28;20406;-78
2023/08/24 11:02:55;;;;;;;1.90;0.40;;;;;;;21.21;61.38;101181.06;5064230;28;20049;-78
2023/08/24 11:05:27;;;;;;;1.83;0.47;;;;;;;21.21;60.77;101162.47;5055256;28;20071;-81
2023/08/24 11:07:56;;;;;;;4.40;0.47;;;;;;;21.21;61.00;101165.97;5066871;28;20057;-80
2023/08/24 11:10:24;;;;;;;3.50;0.32;;;;;;;21.24;61.31;101170.25;5066025;28;20051;-88
2023/08/24 11:13:08;;;;;;;5.25;0.30;;;;;;;21.23;61.31;101161.44;5061265;28;20074;-81
2023/08/24 11:15:39;;;;;;;4.07;0.40;;;;;;;21.15;61.44;101147.72;5054437;28;20053;-80
2023/08/24 11:18:20;;;;;;;7.53;0.60;;;;;;;21.26;61.05;101161.25;5062963;28;20068;-80
2023/08/24 11:20:50;;;;;;;4.57;0.50;;;;;;;21.29;61.54;101160.22;5054483;28;20049;-83
2023/08/24 11:23:18;;;;;;;3.47;0.40;;;;;;;21.24;61.22;101152.50;5062927;28;20052;-82
2023/08/24 11:25:45;;;;;;;1.00;0.40;;;;;;;21.29;60.92;101160.22;5063308;28;20414;-84
2023/08/24 11:28:17;;;;;;;6.88;0.47;;;;;;;21.26;60.87;101157.72;5056465;28;20441;-78